createdAt,value
2016-09-16T00:00:23.054Z,0.00
2016-09-16T00:01:23.562Z,0.00
2016-09-16T00:02:24.079Z,0.00
2016-09-16T00:03:24.593Z,0.00
2016-09-16T00:04:25.111Z,0.00
2016-09-16T00:05:25.625Z,0.00
2016-09-16T00:06:26.136Z,0.00
2016-09-16T00:07:26.801Z,0.00
2016-09-16T00:08:27.313Z,0.00
2016-09-16T00:09:27.686Z,0.00
2016-09-16T00:10:28.194Z,0.00
2016-09-16T00:11:28.708Z,0.00
2016-09-16T00:12:29.242Z,0.00
2016-09-16T00:13:29.745Z,0.00
2016-09-16T00:14:30.258Z,0.00
2016-09-16T00:15:30.772Z,0.00
2016-09-16T00:16:31.291Z,0.00
2016-09-16T00:17:31.802Z,0.00
2016-09-16T00:18:32.319Z,0.00
2016-09-16T00:19:32.839Z,0.00
2016-09-16T00:20:33.349Z,0.00
2016-09-16T00:21:33.867Z,0.00
2016-09-16T00:22:34.383Z,0.00
2016-09-16T00:23:34.893Z,0.00
2016-09-16T00:24:35.413Z,0.00
2016-09-16T00:25:36.098Z,0.00
2016-09-16T00:26:36.445Z,0.00
2016-09-16T00:27:36.975Z,0.00
2016-09-16T00:28:37.476Z,0.00
2016-09-16T00:29:37.985Z,0.00
2016-09-16T00:30:38.496Z,0.00
2016-09-16T00:31:39.014Z,0.00
2016-09-16T00:32:39.679Z,0.00
2016-09-16T00:33:40.065Z,0.00
2016-09-16T00:34:40.553Z,0.00
2016-09-16T00:35:41.072Z,0.00
2016-09-16T00:36:41.583Z,0.00
2016-09-16T00:37:42.126Z,0.00
2016-09-16T00:38:42.609Z,0.00
2016-09-16T00:39:43.125Z,0.00
2016-09-16T00:40:43.658Z,0.00
2016-09-16T00:41:44.153Z,0.00
2016-09-16T00:42:44.668Z,0.00
2016-09-16T00:43:45.186Z,0.00
2016-09-16T00:44:45.696Z,0.00
2016-09-16T00:45:46.221Z,0.00
2016-09-16T00:46:46.742Z,0.00
2016-09-16T00:47:47.386Z,0.00
2016-09-16T00:48:47.909Z,0.00
2016-09-16T00:49:48.267Z,0.00
2016-09-16T00:50:48.792Z,0.00
2016-09-16T00:51:49.307Z,0.00
2016-09-16T00:52:49.826Z,0.00
2016-09-16T00:53:50.341Z,0.00
2016-09-16T00:54:51.006Z,0.00
2016-09-16T00:55:51.379Z,0.00
2016-09-16T00:56:51.900Z,0.00
2016-09-16T00:57:52.399Z,0.00
2016-09-16T00:58:52.918Z,0.00
2016-09-16T00:59:53.431Z,0.00
2016-09-16T01:00:53.945Z,0.00
2016-09-16T01:01:54.460Z,0.00
2016-09-16T01:02:54.976Z,0.00
2016-09-16T01:03:55.488Z,0.00
2016-09-16T01:04:56.158Z,0.00
2016-09-16T01:05:56.702Z,0.00
2016-09-16T01:06:57.037Z,0.00
2016-09-16T01:07:57.563Z,0.00
2016-09-16T01:08:58.074Z,0.00
2016-09-16T01:09:58.584Z,0.00
2016-09-16T01:10:59.097Z,0.00
2016-09-16T01:11:59.616Z,0.00
2016-09-16T01:13:00.139Z,0.00
2016-09-16T01:14:00.648Z,0.00
2016-09-16T01:15:01.164Z,0.00
2016-09-16T01:16:01.683Z,0.00
2016-09-16T01:17:02.195Z,0.00
2016-09-16T01:18:02.706Z,0.00
2016-09-16T01:19:03.223Z,0.00
2016-09-16T01:20:03.748Z,0.00
2016-09-16T01:21:04.252Z,0.00
2016-09-16T01:22:04.765Z,0.00
2016-09-16T01:23:05.283Z,0.00
2016-09-16T01:24:05.803Z,0.00
2016-09-16T01:25:06.318Z,0.00
2016-09-16T01:26:06.845Z,0.00
2016-09-16T01:27:07.385Z,0.00
2016-09-16T01:28:07.867Z,0.00
2016-09-16T01:29:08.387Z,0.00
2016-09-16T01:30:08.904Z,0.00
2016-09-16T01:31:09.422Z,0.00
2016-09-16T01:32:09.938Z,0.00
2016-09-16T01:33:10.608Z,0.00
2016-09-16T01:34:10.971Z,0.00
2016-09-16T01:35:11.638Z,0.00
2016-09-16T01:36:11.997Z,0.00
2016-09-16T01:37:12.508Z,0.00
2016-09-16T01:38:13.031Z,0.00
2016-09-16T01:39:13.540Z,0.00
2016-09-16T01:40:14.203Z,0.00
2016-09-16T01:41:14.568Z,0.00
2016-09-16T01:42:15.079Z,0.00
2016-09-16T01:43:15.615Z,0.00
2016-09-16T01:44:16.262Z,0.00
2016-09-16T01:45:16.626Z,0.00
2016-09-16T01:46:17.135Z,0.00
2016-09-16T01:47:17.652Z,0.00
2016-09-16T01:48:18.166Z,0.00
2016-09-16T01:49:18.684Z,0.00
2016-09-16T01:50:19.198Z,0.00
2016-09-16T01:51:19.862Z,0.00
2016-09-16T01:52:20.376Z,0.00
2016-09-16T01:53:20.735Z,0.00
2016-09-16T01:54:21.248Z,0.00
2016-09-16T01:55:21.764Z,0.00
2016-09-16T01:56:22.275Z,0.00
2016-09-16T01:57:22.786Z,0.00
2016-09-16T01:58:23.306Z,0.00
2016-09-16T01:59:23.813Z,0.00
2016-09-16T02:00:24.329Z,0.00
2016-09-16T02:01:24.844Z,0.00
2016-09-16T02:02:25.507Z,0.00
2016-09-16T02:03:25.870Z,0.00
2016-09-16T02:04:26.538Z,0.00
2016-09-16T02:05:28.705Z,0.00
2016-09-16T02:06:27.420Z,0.00
2016-09-16T02:07:27.939Z,0.00
2016-09-16T02:08:28.606Z,0.00
2016-09-16T02:09:28.973Z,0.00
2016-09-16T02:10:29.489Z,0.00
2016-09-16T02:11:30.006Z,0.00
2016-09-16T02:12:30.963Z,0.00
2016-09-16T02:13:31.052Z,0.00
2016-09-16T02:14:31.542Z,0.00
2016-09-16T02:15:32.054Z,0.00
2016-09-16T02:16:32.572Z,0.00
2016-09-16T02:17:33.239Z,0.00
2016-09-16T02:18:33.598Z,0.00
2016-09-16T02:19:34.112Z,0.00
2016-09-16T02:20:34.629Z,0.00
2016-09-16T02:21:35.139Z,0.00
2016-09-16T02:22:35.651Z,0.00
2016-09-16T02:23:36.170Z,0.00
2016-09-16T02:24:36.685Z,0.00
2016-09-16T02:25:37.195Z,0.00
2016-09-16T02:26:37.709Z,0.00
2016-09-16T02:27:38.228Z,0.00
2016-09-16T02:28:38.743Z,0.00
2016-09-16T02:29:39.251Z,0.00
2016-09-16T02:30:39.771Z,0.00
2016-09-16T02:31:40.280Z,0.00
2016-09-16T02:32:40.798Z,0.00
2016-09-16T02:33:41.337Z,0.00
2016-09-16T02:34:41.824Z,0.00
2016-09-16T02:35:42.339Z,0.00
2016-09-16T02:36:42.857Z,0.00
2016-09-16T02:37:43.369Z,0.00
2016-09-16T02:38:43.889Z,0.00
2016-09-16T02:39:44.393Z,0.00
2016-09-16T02:40:44.914Z,0.00
2016-09-16T02:41:45.429Z,0.00
2016-09-16T02:42:45.947Z,0.00
2016-09-16T02:43:46.619Z,0.00
2016-09-16T02:44:46.976Z,0.00
2016-09-16T02:45:47.497Z,0.00
2016-09-16T02:46:48.015Z,0.00
2016-09-16T02:47:48.522Z,0.00
2016-09-16T02:48:49.042Z,0.00
2016-09-16T02:49:49.555Z,0.00
2016-09-16T02:50:50.067Z,0.00
2016-09-16T02:51:50.586Z,0.00
2016-09-16T02:52:51.096Z,0.00
2016-09-16T02:53:51.617Z,0.00
2016-09-16T02:54:52.276Z,0.00
2016-09-16T02:55:52.641Z,0.00
2016-09-16T02:56:53.169Z,0.00
2016-09-16T02:57:53.673Z,0.00
2016-09-16T02:58:54.182Z,0.00
2016-09-16T02:59:54.715Z,0.00
2016-09-16T03:00:55.211Z,0.00
2016-09-16T03:01:55.726Z,0.00
2016-09-16T03:02:56.251Z,0.00
2016-09-16T03:03:56.755Z,0.00
2016-09-16T03:04:57.429Z,0.00
2016-09-16T03:05:57.778Z,0.00
2016-09-16T03:06:58.601Z,0.00
2016-09-16T03:07:58.807Z,0.00
2016-09-16T03:08:59.326Z,0.00
2016-09-16T03:09:59.832Z,0.00
2016-09-16T03:11:00.351Z,0.00
2016-09-16T03:12:01.033Z,0.00
2016-09-16T03:13:01.385Z,0.00
2016-09-16T03:14:02.044Z,0.00
2016-09-16T03:15:02.408Z,0.00
2016-09-16T03:16:03.073Z,0.00
2016-09-16T03:17:03.445Z,0.00
2016-09-16T03:18:03.963Z,0.00
2016-09-16T03:19:04.468Z,0.00
2016-09-16T03:20:04.989Z,0.00
2016-09-16T03:21:05.513Z,0.00
2016-09-16T03:22:06.023Z,0.00
2016-09-16T03:23:06.540Z,0.00
2016-09-16T03:24:07.053Z,0.00
2016-09-16T03:25:07.717Z,0.00
2016-09-16T03:26:08.080Z,0.00
2016-09-16T03:27:08.599Z,0.00
2016-09-16T03:28:09.114Z,0.00
2016-09-16T03:29:09.629Z,0.00
2016-09-16T03:30:10.149Z,0.00
2016-09-16T03:31:10.657Z,0.00
2016-09-16T03:32:11.172Z,0.00
2016-09-16T03:33:11.685Z,0.00
2016-09-16T03:34:12.353Z,0.00
2016-09-16T03:35:12.713Z,0.00
2016-09-16T03:36:13.230Z,0.00
2016-09-16T03:37:13.740Z,0.00
2016-09-16T03:38:14.254Z,0.00
2016-09-16T03:39:14.917Z,0.00
2016-09-16T03:40:15.284Z,0.00
2016-09-16T03:41:15.796Z,0.00
2016-09-16T03:42:16.308Z,0.00
2016-09-16T03:43:18.027Z,0.00
2016-09-16T03:44:17.334Z,0.00
2016-09-16T03:45:17.857Z,0.00
2016-09-16T03:46:18.359Z,0.00
2016-09-16T03:47:18.880Z,0.00
2016-09-16T03:48:19.537Z,0.00
2016-09-16T03:49:19.930Z,0.00
2016-09-16T03:50:20.421Z,0.00
2016-09-16T03:51:20.935Z,0.00
2016-09-16T03:52:21.454Z,0.00
2016-09-16T03:53:21.979Z,0.00
2016-09-16T03:54:22.492Z,0.00
2016-09-16T03:55:23.009Z,0.00
2016-09-16T03:56:23.528Z,0.00
2016-09-16T03:57:24.044Z,0.00
2016-09-16T03:58:24.561Z,0.00
2016-09-16T03:59:25.077Z,0.00
2016-09-16T04:00:25.591Z,0.00
2016-09-16T04:01:26.110Z,0.00
2016-09-16T04:02:26.626Z,0.00
2016-09-16T04:03:27.131Z,0.00
2016-09-16T04:04:27.651Z,0.00
2016-09-16T04:05:28.165Z,0.00
2016-09-16T04:06:28.703Z,0.00
2016-09-16T04:07:29.196Z,0.00
2016-09-16T04:08:29.707Z,0.00
2016-09-16T04:09:30.221Z,0.00
2016-09-16T04:10:30.734Z,0.00
2016-09-16T04:11:31.251Z,0.00
2016-09-16T04:12:31.768Z,0.00
2016-09-16T04:13:32.287Z,0.00
2016-09-16T04:14:32.952Z,0.00
2016-09-16T04:15:33.308Z,0.00
2016-09-16T04:16:33.825Z,0.00
2016-09-16T04:17:34.344Z,0.00
2016-09-16T04:18:34.854Z,0.00
2016-09-16T04:19:35.369Z,0.00
2016-09-16T04:20:35.890Z,0.00
2016-09-16T04:21:36.393Z,0.00
2016-09-16T04:22:36.905Z,0.00
2016-09-16T04:23:37.418Z,0.00
2016-09-16T04:24:37.934Z,0.00
2016-09-16T04:25:38.452Z,0.00
2016-09-16T04:26:38.991Z,0.00
2016-09-16T04:27:40.382Z,0.00
2016-09-16T04:28:39.995Z,0.00
2016-09-16T04:29:40.502Z,0.00
2016-09-16T04:30:41.022Z,0.00
2016-09-16T04:31:41.541Z,0.00
2016-09-16T04:32:42.207Z,0.00
2016-09-16T04:33:42.578Z,0.00
2016-09-16T04:34:43.095Z,0.00
2016-09-16T04:35:43.611Z,0.00
2016-09-16T04:36:44.123Z,0.00
2016-09-16T04:37:44.638Z,0.00
2016-09-16T04:38:45.148Z,0.00
2016-09-16T04:39:45.668Z,0.00
2016-09-16T04:40:46.179Z,0.00
2016-09-16T04:41:46.694Z,0.00
2016-09-16T04:42:47.208Z,0.00
2016-09-16T04:43:47.725Z,0.00
2016-09-16T04:44:48.238Z,0.00
2016-09-16T04:45:48.757Z,0.00
2016-09-16T04:46:49.568Z,0.00
2016-09-16T04:47:49.785Z,0.00
2016-09-16T04:48:50.294Z,0.00
2016-09-16T04:49:50.833Z,0.00
2016-09-16T04:50:51.345Z,0.00
2016-09-16T04:51:51.837Z,0.00
2016-09-16T04:52:52.354Z,0.00
2016-09-16T04:53:52.872Z,0.00
2016-09-16T04:54:53.531Z,0.00
2016-09-16T04:55:53.901Z,0.00
2016-09-16T04:56:54.414Z,0.00
2016-09-16T04:57:54.930Z,0.00
2016-09-16T04:58:55.445Z,0.00
2016-09-16T04:59:55.959Z,0.00
2016-09-16T05:00:56.485Z,0.00
2016-09-16T05:01:57.005Z,0.00
2016-09-16T05:02:57.693Z,0.00
2016-09-16T05:03:58.017Z,0.00
2016-09-16T05:04:58.529Z,0.00
2016-09-16T05:05:59.044Z,0.00
2016-09-16T05:06:59.705Z,0.00
2016-09-16T05:08:00.069Z,0.00
2016-09-16T05:09:00.583Z,0.00
2016-09-16T05:10:01.106Z,0.00
2016-09-16T05:11:01.626Z,0.00
2016-09-16T05:12:02.162Z,0.00
2016-09-16T05:13:02.659Z,0.00
2016-09-16T05:14:03.175Z,0.00
2016-09-16T05:15:03.687Z,0.00
2016-09-16T05:16:04.201Z,0.00
2016-09-16T05:17:04.721Z,0.00
2016-09-16T05:18:05.234Z,0.00
2016-09-16T05:19:05.900Z,0.00
2016-09-16T05:20:06.261Z,0.00
2016-09-16T05:21:06.777Z,0.00
2016-09-16T05:22:07.297Z,7.00
2016-09-16T05:23:07.802Z,0.00
2016-09-16T05:24:08.468Z,0.00
2016-09-16T05:25:08.990Z,0.00
2016-09-16T05:26:09.349Z,0.00
2016-09-16T05:27:09.871Z,0.00
2016-09-16T05:28:10.401Z,0.00
2016-09-16T05:29:10.897Z,0.00
2016-09-16T05:30:11.416Z,0.00
2016-09-16T05:31:11.933Z,0.00
2016-09-16T05:32:12.440Z,0.00
2016-09-16T05:33:12.960Z,0.00
2016-09-16T05:34:13.475Z,0.00
2016-09-16T05:35:13.989Z,0.00
2016-09-16T05:36:14.503Z,0.00
2016-09-16T05:37:15.171Z,0.00
2016-09-16T05:38:15.546Z,0.00
2016-09-16T05:39:16.047Z,0.00
2016-09-16T05:40:16.563Z,0.00
2016-09-16T05:41:17.105Z,1.00
2016-09-16T05:42:17.619Z,1.00
2016-09-16T05:43:18.256Z,1.00
2016-09-16T05:44:18.621Z,1.00
2016-09-16T05:45:19.142Z,1.00
2016-09-16T05:46:19.665Z,1.00
2016-09-16T05:47:20.181Z,1.00
2016-09-16T05:48:20.699Z,1.00
2016-09-16T05:49:21.208Z,1.00
2016-09-16T05:50:21.734Z,1.00
2016-09-16T05:51:22.395Z,1.00
2016-09-16T05:52:22.757Z,2.00
2016-09-16T05:53:23.298Z,2.00
2016-09-16T05:54:23.788Z,2.00
2016-09-16T05:55:24.304Z,2.00
2016-09-16T05:56:24.827Z,3.00
2016-09-16T05:57:25.335Z,3.00
2016-09-16T05:58:25.870Z,3.00
2016-09-16T05:59:26.364Z,4.00
2016-09-16T06:00:26.874Z,4.00
2016-09-16T06:01:27.393Z,4.00
2016-09-16T06:02:27.910Z,4.00
2016-09-16T06:03:28.425Z,5.00
2016-09-16T06:04:28.935Z,5.00
2016-09-16T06:05:29.450Z,5.00
2016-09-16T06:06:29.989Z,4.00
2016-09-16T06:07:30.476Z,3.00
2016-09-16T06:08:30.990Z,3.00
2016-09-16T06:09:31.505Z,3.00
2016-09-16T06:10:32.017Z,2.00
2016-09-16T06:11:32.533Z,2.00
2016-09-16T06:12:33.055Z,2.00
2016-09-16T06:13:33.586Z,2.00
2016-09-16T06:14:34.084Z,3.00
2016-09-16T06:15:34.594Z,3.00
2016-09-16T06:16:35.131Z,3.00
2016-09-16T06:17:35.625Z,3.00
2016-09-16T06:18:36.142Z,4.00
2016-09-16T06:19:36.654Z,4.00
2016-09-16T06:20:37.172Z,5.00
2016-09-16T06:21:37.693Z,6.00
2016-09-16T06:22:38.205Z,6.00
2016-09-16T06:23:38.875Z,6.00
2016-09-16T06:24:39.392Z,7.00
2016-09-16T06:25:39.762Z,9.00
2016-09-16T06:26:40.278Z,7.00
2016-09-16T06:27:40.793Z,7.00
2016-09-16T06:28:41.309Z,7.00
2016-09-16T06:29:41.824Z,8.00
2016-09-16T06:30:42.339Z,8.00
2016-09-16T06:31:42.853Z,9.00
2016-09-16T06:32:43.368Z,9.00
2016-09-16T06:33:43.881Z,19.00
2016-09-16T06:34:44.398Z,16.00
2016-09-16T06:35:44.912Z,16.00
2016-09-16T06:36:45.430Z,14.00
2016-09-16T06:37:45.941Z,9.00
2016-09-16T06:38:46.454Z,7.00
2016-09-16T06:39:46.969Z,5.00
2016-09-16T06:40:47.483Z,4.00
2016-09-16T06:41:47.996Z,4.00
2016-09-16T06:42:48.518Z,5.00
2016-09-16T06:43:49.029Z,5.00
2016-09-16T06:44:49.562Z,5.00
2016-09-16T06:45:50.061Z,5.00
2016-09-16T06:46:50.571Z,5.00
2016-09-16T06:47:51.089Z,6.00
2016-09-16T06:48:51.603Z,6.00
2016-09-16T06:49:52.119Z,6.00
2016-09-16T06:50:52.629Z,6.00
2016-09-16T06:51:53.150Z,6.00
2016-09-16T06:52:53.670Z,7.00
2016-09-16T06:53:54.187Z,19.00
2016-09-16T06:54:54.848Z,19.00
2016-09-16T06:55:55.221Z,10.00
2016-09-16T06:56:55.881Z,9.00
2016-09-16T06:57:56.286Z,9.00
2016-09-16T06:58:56.764Z,9.00
2016-09-16T06:59:57.289Z,7.00
2016-09-16T07:00:57.817Z,6.00
2016-09-16T07:01:58.331Z,6.00
2016-09-16T07:02:58.834Z,7.00
2016-09-16T07:03:59.374Z,7.00
2016-09-16T07:04:59.881Z,7.00
2016-09-16T07:06:00.375Z,7.00
2016-09-16T07:07:00.893Z,7.00
2016-09-16T07:08:01.400Z,8.00
2016-09-16T07:09:01.958Z,8.00
2016-09-16T07:10:02.452Z,9.00
2016-09-16T07:11:02.940Z,19.00
2016-09-16T07:12:03.610Z,10.00
2016-09-16T07:13:04.143Z,11.00
2016-09-16T07:14:04.482Z,11.00
2016-09-16T07:15:05.000Z,11.00
2016-09-16T07:16:05.519Z,11.00
2016-09-16T07:17:06.031Z,11.00
2016-09-16T07:18:06.693Z,11.00
2016-09-16T07:19:07.058Z,11.00
2016-09-16T07:20:07.575Z,11.00
2016-09-16T07:21:08.109Z,12.00
2016-09-16T07:22:08.751Z,13.00
2016-09-16T07:23:09.118Z,14.00
2016-09-16T07:24:09.629Z,16.00
2016-09-16T07:25:10.145Z,17.00
2016-09-16T07:26:10.663Z,19.00
2016-09-16T07:27:11.170Z,29.00
2016-09-16T07:28:11.695Z,23.00
2016-09-16T07:29:12.211Z,29.00
2016-09-16T07:30:12.719Z,39.00
2016-09-16T07:31:13.382Z,49.00
2016-09-16T07:32:13.748Z,48.00
2016-09-16T07:33:14.269Z,35.00
2016-09-16T07:34:14.781Z,31.00
2016-09-16T07:35:15.322Z,33.00
2016-09-16T07:36:15.971Z,38.00
2016-09-16T07:37:16.339Z,59.00
2016-09-16T07:38:16.854Z,56.00
2016-09-16T07:39:17.365Z,54.00
2016-09-16T07:40:17.881Z,41.00
2016-09-16T07:41:18.389Z,31.00
2016-09-16T07:42:18.912Z,32.00
2016-09-16T07:43:19.576Z,32.00
2016-09-16T07:44:19.942Z,32.00
2016-09-16T07:45:20.454Z,31.00
2016-09-16T07:46:20.971Z,29.00
2016-09-16T07:47:21.484Z,39.00
2016-09-16T07:48:22.030Z,31.00
2016-09-16T07:49:22.514Z,30.00
2016-09-16T07:50:23.024Z,24.00
2016-09-16T07:51:23.536Z,23.00
2016-09-16T07:52:24.051Z,25.00
2016-09-16T07:53:24.560Z,28.00
2016-09-16T07:54:25.080Z,29.00
2016-09-16T07:55:25.597Z,29.00
2016-09-16T07:56:26.108Z,39.00
2016-09-16T07:57:26.624Z,33.00
2016-09-16T07:58:27.133Z,32.00
2016-09-16T07:59:27.653Z,32.00
2016-09-16T08:00:28.310Z,29.00
2016-09-16T08:01:28.678Z,28.00
2016-09-16T08:02:29.195Z,28.00
2016-09-16T08:03:29.719Z,28.00
2016-09-16T08:04:30.226Z,26.00
2016-09-16T08:05:30.887Z,25.00
2016-09-16T08:06:31.249Z,24.00
2016-09-16T08:07:31.762Z,24.00
2016-09-16T08:08:32.278Z,22.00
2016-09-16T08:09:32.802Z,20.00
2016-09-16T08:10:33.310Z,20.00
2016-09-16T08:11:33.832Z,19.00
2016-09-16T08:12:34.368Z,19.00
2016-09-16T08:13:34.885Z,19.00
2016-09-16T08:14:35.372Z,19.00
2016-09-16T08:15:35.912Z,19.00
2016-09-16T08:16:36.401Z,19.00
2016-09-16T08:17:36.921Z,18.00
2016-09-16T08:18:37.436Z,17.00
2016-09-16T08:19:37.947Z,16.00
2016-09-16T08:20:38.475Z,16.00
2016-09-16T08:21:38.978Z,15.00
2016-09-16T08:22:39.491Z,15.00
2016-09-16T08:23:40.182Z,15.00
2016-09-16T08:24:40.524Z,15.00
2016-09-16T08:25:41.066Z,15.00
2016-09-16T08:26:41.546Z,15.00
2016-09-16T08:27:42.066Z,15.00
2016-09-16T08:28:42.577Z,14.00
2016-09-16T08:29:43.091Z,14.00
2016-09-16T08:30:43.607Z,13.00
2016-09-16T08:31:44.130Z,12.00
2016-09-16T08:32:44.639Z,12.00
2016-09-16T08:33:45.305Z,11.00
2016-09-16T08:34:45.675Z,11.00
2016-09-16T08:35:46.183Z,11.00
2016-09-16T08:36:46.695Z,11.00
2016-09-16T08:37:47.357Z,11.00
2016-09-16T08:38:47.720Z,11.00
2016-09-16T08:39:48.394Z,11.00
2016-09-16T08:40:48.752Z,11.00
2016-09-16T08:41:49.272Z,11.00
2016-09-16T08:42:49.785Z,11.00
2016-09-16T08:43:50.305Z,11.00
2016-09-16T08:44:50.809Z,11.00
2016-09-16T08:45:51.328Z,11.00
2016-09-16T08:46:51.996Z,11.00
2016-09-16T08:47:52.364Z,10.00
2016-09-16T08:48:52.882Z,10.00
2016-09-16T08:49:53.406Z,19.00
2016-09-16T08:50:53.909Z,11.00
2016-09-16T08:51:54.575Z,11.00
2016-09-16T08:52:54.961Z,19.00
2016-09-16T08:53:55.462Z,13.00
2016-09-16T08:54:55.992Z,14.00
2016-09-16T08:55:56.483Z,14.00
2016-09-16T08:56:56.994Z,15.00
2016-09-16T08:57:57.510Z,16.00
2016-09-16T08:58:58.029Z,16.00
2016-09-16T08:59:58.545Z,17.00
2016-09-16T09:00:59.057Z,17.00
2016-09-16T09:01:59.722Z,17.00
2016-09-16T09:03:00.238Z,16.00
2016-09-16T09:04:00.605Z,16.00
2016-09-16T09:05:01.261Z,16.00
2016-09-16T09:06:01.631Z,16.00
2016-09-16T09:07:02.148Z,16.00
2016-09-16T09:08:02.663Z,15.00
2016-09-16T09:09:03.177Z,15.00
2016-09-16T09:10:03.709Z,15.00
2016-09-16T09:11:04.226Z,14.00
2016-09-16T09:12:04.868Z,13.00
2016-09-16T09:13:05.233Z,13.00
2016-09-16T09:14:05.747Z,19.00
2016-09-16T09:15:06.257Z,12.00
2016-09-16T09:16:06.925Z,12.00
2016-09-16T09:17:07.435Z,12.00
2016-09-16T09:18:07.801Z,13.00
2016-09-16T09:19:08.317Z,14.00
2016-09-16T09:20:08.982Z,16.00
2016-09-16T09:21:09.349Z,29.00
2016-09-16T09:22:09.866Z,29.00
2016-09-16T09:23:10.381Z,23.00
2016-09-16T09:24:10.905Z,22.00
2016-09-16T09:25:11.420Z,22.00
2016-09-16T09:26:11.947Z,21.00
2016-09-16T09:27:12.450Z,20.00
2016-09-16T09:28:12.987Z,20.00
2016-09-16T09:29:13.482Z,21.00
2016-09-16T09:30:13.997Z,21.00
2016-09-16T09:31:14.508Z,39.00
2016-09-16T09:32:15.042Z,39.00
2016-09-16T09:33:15.544Z,20.00
2016-09-16T09:34:16.065Z,18.00
2016-09-16T09:35:16.593Z,17.00
2016-09-16T09:36:17.234Z,17.00
2016-09-16T09:37:17.598Z,17.00
2016-09-16T09:38:18.270Z,18.00
2016-09-16T09:39:18.788Z,18.00
2016-09-16T09:40:19.153Z,18.00
2016-09-16T09:41:19.672Z,19.00
2016-09-16T09:42:20.193Z,19.00
2016-09-16T09:43:20.692Z,19.00
2016-09-16T09:44:21.210Z,19.00
2016-09-16T09:45:21.725Z,19.00
2016-09-16T09:46:22.233Z,19.00
2016-09-16T09:47:22.757Z,19.00
2016-09-16T09:48:23.277Z,29.00
2016-09-16T09:49:23.788Z,21.00
2016-09-16T09:50:24.447Z,24.00
2016-09-16T09:51:24.810Z,49.00
2016-09-16T09:52:25.336Z,39.00
2016-09-16T09:53:25.883Z,31.00
2016-09-16T09:54:26.361Z,29.00
2016-09-16T09:55:26.877Z,39.00
2016-09-16T09:56:27.417Z,48.00
2016-09-16T09:57:27.902Z,41.00
2016-09-16T09:58:28.421Z,30.00
2016-09-16T09:59:28.941Z,39.00
2016-09-16T10:00:29.463Z,37.00
2016-09-16T10:01:30.004Z,30.00
2016-09-16T10:02:30.498Z,30.00
2016-09-16T10:03:31.158Z,48.00
2016-09-16T10:04:31.676Z,30.00
2016-09-16T10:05:32.191Z,76.00
2016-09-16T10:06:32.558Z,79.00
2016-09-16T10:07:33.072Z,76.00
2016-09-16T10:08:33.734Z,76.00
2016-09-16T10:09:34.101Z,76.00
2016-09-16T10:10:34.611Z,78.00
2016-09-16T10:11:35.126Z,79.00
2016-09-16T10:12:35.792Z,79.00
2016-09-16T10:13:36.154Z,79.00
2016-09-16T10:14:36.676Z,79.00
2016-09-16T10:15:37.189Z,79.00
2016-09-16T10:16:37.853Z,79.00
2016-09-16T10:17:38.225Z,78.00
2016-09-16T10:18:38.733Z,77.00
2016-09-16T10:19:39.281Z,79.00
2016-09-16T10:20:39.760Z,77.00
2016-09-16T10:21:40.431Z,78.00
2016-09-16T10:22:40.799Z,79.00
2016-09-16T10:23:41.315Z,68.00
2016-09-16T10:24:41.817Z,63.00
2016-09-16T10:25:42.350Z,35.00
2016-09-16T10:26:42.846Z,38.00
2016-09-16T10:27:43.525Z,39.00
2016-09-16T10:28:43.875Z,23.00
2016-09-16T10:29:44.386Z,23.00
2016-09-16T10:30:44.907Z,23.00
2016-09-16T10:31:45.412Z,49.00
2016-09-16T10:32:45.924Z,25.00
2016-09-16T10:33:46.587Z,37.00
2016-09-16T10:34:46.951Z,38.00
2016-09-16T10:35:47.471Z,24.00
2016-09-16T10:36:48.143Z,26.00
2016-09-16T10:37:48.514Z,29.00
2016-09-16T10:38:49.033Z,29.00
2016-09-16T10:39:49.700Z,39.00
2016-09-16T10:40:50.064Z,49.00
2016-09-16T10:41:50.728Z,48.00
2016-09-16T10:42:51.542Z,49.00
2016-09-16T10:43:51.605Z,49.00
2016-09-16T10:44:52.122Z,46.00
2016-09-16T10:45:52.639Z,38.00
2016-09-16T10:46:53.301Z,29.00
2016-09-16T10:47:53.700Z,29.00
2016-09-16T10:48:54.181Z,25.00
2016-09-16T10:49:54.695Z,22.00
2016-09-16T10:50:55.216Z,29.00
2016-09-16T10:51:55.726Z,21.00
2016-09-16T10:52:56.241Z,20.00
2016-09-16T10:53:56.757Z,20.00
2016-09-16T10:54:57.269Z,20.00
2016-09-16T10:55:57.969Z,21.00
2016-09-16T10:56:58.306Z,22.00
2016-09-16T10:57:58.812Z,23.00
2016-09-16T10:58:59.338Z,24.00
2016-09-16T10:59:59.844Z,24.00
2016-09-16T11:01:00.357Z,26.00
2016-09-16T11:02:00.897Z,29.00
2016-09-16T11:03:01.395Z,29.00
2016-09-16T11:04:01.906Z,29.00
2016-09-16T11:05:02.566Z,28.00
2016-09-16T11:06:02.931Z,29.00
2016-09-16T11:07:03.446Z,29.00
2016-09-16T11:08:03.959Z,26.00
2016-09-16T11:09:04.475Z,27.00
2016-09-16T11:10:05.004Z,26.00
2016-09-16T11:11:05.514Z,25.00
2016-09-16T11:12:06.018Z,26.00
2016-09-16T11:13:06.551Z,27.00
2016-09-16T11:14:07.058Z,39.00
2016-09-16T11:15:07.576Z,47.00
2016-09-16T11:16:08.091Z,59.00
2016-09-16T11:17:08.666Z,69.00
2016-09-16T11:18:09.145Z,62.00
2016-09-16T11:19:09.630Z,62.00
2016-09-16T11:20:10.149Z,62.00
2016-09-16T11:21:10.662Z,62.00
2016-09-16T11:22:11.173Z,62.00
2016-09-16T11:23:11.838Z,62.00
2016-09-16T11:24:12.203Z,60.00
2016-09-16T11:25:12.720Z,69.00
2016-09-16T11:26:13.232Z,69.00
2016-09-16T11:27:13.752Z,24.00
2016-09-16T11:28:14.269Z,23.00
2016-09-16T11:29:14.782Z,57.00
2016-09-16T11:30:15.316Z,54.00
2016-09-16T11:31:15.964Z,59.00
2016-09-16T11:32:16.324Z,59.00
2016-09-16T11:33:16.835Z,23.00
2016-09-16T11:34:17.360Z,21.00
2016-09-16T11:35:17.892Z,16.00
2016-09-16T11:36:18.384Z,19.00
2016-09-16T11:37:18.921Z,15.00
2016-09-16T11:38:19.413Z,15.00
2016-09-16T11:39:19.932Z,16.00
2016-09-16T11:40:20.438Z,16.00
2016-09-16T11:41:20.956Z,17.00
2016-09-16T11:42:21.470Z,18.00
2016-09-16T11:43:22.042Z,19.00
2016-09-16T11:44:22.499Z,29.00
2016-09-16T11:45:23.013Z,21.00
2016-09-16T11:46:23.533Z,21.00
2016-09-16T11:47:24.043Z,21.00
2016-09-16T11:48:24.570Z,21.00
2016-09-16T11:49:25.084Z,21.00
2016-09-16T11:50:25.605Z,20.00
2016-09-16T11:51:26.120Z,20.00
2016-09-16T11:52:26.635Z,20.00
2016-09-16T11:53:27.147Z,19.00
2016-09-16T11:54:27.661Z,19.00
2016-09-16T11:55:28.173Z,18.00
2016-09-16T11:56:28.838Z,18.00
2016-09-16T11:57:29.206Z,18.00
2016-09-16T11:58:29.722Z,19.00
2016-09-16T11:59:30.240Z,19.00
2016-09-16T12:00:30.754Z,19.00
2016-09-16T12:01:31.269Z,29.00
2016-09-16T12:02:31.789Z,20.00
2016-09-16T12:03:32.299Z,20.00
2016-09-16T12:04:32.818Z,20.00
2016-09-16T12:05:33.343Z,20.00
2016-09-16T12:06:33.861Z,20.00
2016-09-16T12:07:34.404Z,19.00
2016-09-16T12:08:34.877Z,19.00
2016-09-16T12:09:35.397Z,18.00
2016-09-16T12:10:36.048Z,18.00
2016-09-16T12:11:36.416Z,17.00
2016-09-16T12:12:36.930Z,17.00
2016-09-16T12:13:37.443Z,16.00
2016-09-16T12:14:37.963Z,16.00
2016-09-16T12:15:38.471Z,16.00
2016-09-16T12:16:39.284Z,15.00
2016-09-16T12:17:39.645Z,19.00
2016-09-16T12:18:40.161Z,14.00
2016-09-16T12:19:40.537Z,13.00
2016-09-16T12:20:41.053Z,13.00
2016-09-16T12:21:41.561Z,13.00
2016-09-16T12:22:42.075Z,13.00
2016-09-16T12:23:42.604Z,13.00
2016-09-16T12:24:43.108Z,14.00
2016-09-16T12:25:43.629Z,14.00
2016-09-16T12:26:44.147Z,14.00
2016-09-16T12:27:44.666Z,15.00
2016-09-16T12:28:45.180Z,15.00
2016-09-16T12:29:45.697Z,15.00
2016-09-16T12:30:46.208Z,16.00
2016-09-16T12:31:46.725Z,16.00
2016-09-16T12:32:47.236Z,16.00
2016-09-16T12:33:47.753Z,16.00
2016-09-16T12:34:48.267Z,16.00
2016-09-16T12:35:48.803Z,16.00
2016-09-16T12:36:49.318Z,16.00
2016-09-16T12:37:49.825Z,16.00
2016-09-16T12:38:50.324Z,16.00
2016-09-16T12:39:50.843Z,16.00
2016-09-16T12:40:51.350Z,16.00
2016-09-16T12:41:51.876Z,16.00
2016-09-16T12:42:52.386Z,16.00
2016-09-16T12:43:52.895Z,17.00
2016-09-16T12:44:53.417Z,17.00
2016-09-16T12:45:53.931Z,17.00
2016-09-16T12:46:54.450Z,18.00
2016-09-16T12:47:54.969Z,19.00
2016-09-16T12:48:55.633Z,18.00
2016-09-16T12:49:55.996Z,18.00
2016-09-16T12:50:56.542Z,18.00
2016-09-16T12:51:57.049Z,17.00
2016-09-16T12:52:57.535Z,17.00
2016-09-16T12:53:58.050Z,19.00
2016-09-16T12:54:58.567Z,17.00
2016-09-16T12:55:59.085Z,17.00
2016-09-16T12:56:59.602Z,17.00
2016-09-16T12:58:00.111Z,17.00
2016-09-16T12:59:00.785Z,17.00
2016-09-16T13:00:01.153Z,17.00
2016-09-16T13:01:01.668Z,17.00
2016-09-16T13:02:02.190Z,17.00
2016-09-16T13:03:02.862Z,17.00
2016-09-16T13:04:03.239Z,17.00
2016-09-16T13:05:03.890Z,17.00
2016-09-16T13:06:04.252Z,17.00
2016-09-16T13:07:04.767Z,17.00
2016-09-16T13:08:05.278Z,17.00
2016-09-16T13:09:05.946Z,17.00
2016-09-16T13:10:06.318Z,17.00
2016-09-16T13:11:06.842Z,17.00
2016-09-16T13:12:07.342Z,17.00
2016-09-16T13:13:07.858Z,17.00